Time;durP1;ratioP1;P1;durP2;ratioP2;P2;SDS_P1;SDS_P2;PMS_P1;PMS_P2;Temp;Humidity;BMP_temperature;BMP_pressure;BME280_temperature;BME280_humidity;BME280_pressure;Samples;Min_cycle;Max_cycle;Signal;HPM_P1;HPM_P2
2023/02/19 00:01:45;;;;;;;41.63;22.88;;;9.80;99.90;;;;;;5006987;28;20050;-92
2023/02/19 00:04:30;;;;;;;39.28;23.08;;;9.80;99.90;;;;;;4989818;28;20516;-90
2023/02/19 00:07:00;;;;;;;40.83;23.65;;;9.80;99.90;;;;;;5004619;28;20052;-90
2023/02/19 00:09:27;;;;;;;44.30;23.67;;;9.80;99.90;;;;;;4987050;28;20552;-91
2023/02/19 00:11:56;;;;;;;41.88;23.83;;;9.80;99.90;;;;;;4968013;28;20058;-89
2023/02/19 00:14:47;;;;;;;51.42;26.65;;;9.80;99.90;;;;;;5007133;28;20068;-89
2023/02/19 00:17:14;;;;;;;47.75;25.60;;;9.80;99.90;;;;;;4987422;28;20048;-90
2023/02/19 00:19:43;;;;;;;46.92;25.23;;;9.80;99.90;;;;;;4995116;28;20044;-89
2023/02/19 00:22:12;;;;;;;47.75;26.98;;;9.80;99.90;;;;;;4989410;28;20037;-89
2023/02/19 00:24:40;;;;;;;51.90;26.45;;;9.80;99.90;;;;;;4987224;28;20045;-90
2023/02/19 00:27:09;;;;;;;42.67;26.13;;;9.70;99.90;;;;;;4989593;28;20033;-91
2023/02/19 00:29:36;;;;;;;43.90;26.35;;;9.70;99.90;;;;;;4986384;28;20065;-91
2023/02/19 00:32:09;;;;;;;40.00;26.73;;;9.70;99.90;;;;;;4985364;28;20789;-91
2023/02/19 00:34:35;;;;;;;39.80;24.88;;;9.70;99.90;;;;;;5008647;28;20041;-90
2023/02/19 00:37:08;;;;;;;45.08;27.58;;;9.80;99.90;;;;;;4991821;28;20096;-89
2023/02/19 00:39:33;;;;;;;40.55;25.05;;;9.70;99.90;;;;;;4987698;28;20113;-90
2023/02/19 00:41:59;;;;;;;45.17;27.38;;;9.70;99.90;;;;;;4987529;28;20141;-90
2023/02/19 00:44:26;;;;;;;43.92;27.02;;;9.70;99.90;;;;;;4988193;28;20478;-88
2023/02/19 00:46:53;;;;;;;44.33;27.05;;;9.70;99.90;;;;;;4987629;28;20046;-90
2023/02/19 00:49:22;;;;;;;47.42;25.65;;;9.70;99.90;;;;;;4990793;28;20088;-90
2023/02/19 00:51:50;;;;;;;47.17;27.60;;;9.70;99.90;;;;;;5007276;28;20104;-89
2023/02/19 00:54:16;;;;;;;40.50;24.73;;;9.70;99.90;;;;;;4990937;28;20058;-88
2023/02/19 00:56:50;;;;;;;37.42;23.58;;;9.70;99.90;;;;;;4986081;28;20037;-88
2023/02/19 00:59:18;;;;;;;38.72;23.45;;;9.70;99.90;;;;;;5007805;28;20058;-90
2023/02/19 01:01:50;;;;;;;48.00;27.13;;;9.70;99.90;;;;;;4971621;28;20034;-90
2023/02/19 01:04:16;;;;;;;38.25;24.98;;;9.70;99.90;;;;;;5007926;28;20042;-90
2023/02/19 01:06:43;;;;;;;38.20;23.73;;;9.60;99.90;;;;;;5007877;28;20029;-90
2023/02/19 01:09:12;;;;;;;34.95;22.52;;;9.60;99.90;;;;;;5013414;28;20037;-91
2023/02/19 01:11:41;;;;;;;44.13;27.50;;;9.60;99.90;;;;;;5010057;28;20101;-91
2023/02/19 01:14:08;;;;;;;42.58;25.77;;;9.60;99.90;;;;;;4991025;28;20481;-91
2023/02/19 01:16:34;;;;;;;37.25;23.95;;;9.60;99.90;;;;;;5000731;28;20038;-90
2023/02/19 01:19:01;;;;;;;40.30;23.42;;;9.60;99.90;;;;;;4982754;28;20052;-91
2023/02/19 01:21:28;;;;;;;43.58;26.52;;;9.60;99.90;;;;;;4999024;28;20133;-92
2023/02/19 01:23:56;;;;;;;45.47;25.90;;;9.60;99.90;;;;;;5013044;28;20053;-91
2023/02/19 01:26:36;;;;;;;40.75;24.92;;;9.60;99.90;;;;;;5011300;28;20478;-94
2023/02/19 01:29:22;;;;;;;42.03;25.48;;;9.60;99.90;;;;;;5013717;28;20073;-91
2023/02/19 01:31:51;;;;;;;37.83;22.65;;;9.60;99.90;;;;;;5014351;28;20032;-90
2023/02/19 01:34:17;;;;;;;36.40;22.60;;;9.60;99.90;;;;;;4976338;28;20475;-91
2023/02/19 01:36:46;;;;;;;33.83;22.60;;;9.60;99.90;;;;;;5012744;28;20061;-90
2023/02/19 01:39:18;;;;;;;41.35;23.00;;;9.60;99.90;;;;;;4977466;28;20041;-90
2023/02/19 01:41:47;;;;;;;36.22;24.30;;;9.60;99.90;;;;;;4994619;28;20603;-90
2023/02/19 01:44:18;;;;;;;43.20;25.60;;;9.60;99.90;;;;;;5015211;28;20092;-90
2023/02/19 01:46:47;;;;;;;44.03;25.38;;;9.60;99.90;;;;;;5011586;28;20135;-89
2023/02/19 01:49:47;;;;;;;42.63;24.73;;;9.60;99.90;;;;;;5014053;28;20054;-91
2023/02/19 01:52:35;;;;;;;38.08;21.50;;;9.60;99.90;;;;;;4986455;28;20034;-90
2023/02/19 01:55:05;;;;;;;36.95;19.17;;;9.60;99.90;;;;;;5002480;28;20111;-91
2023/02/19 01:57:39;;;;;;;43.67;20.08;;;9.60;99.90;;;;;;4992045;28;20056;-91
2023/02/19 02:00:23;;;;;;;35.78;16.00;;;9.50;99.90;;;;;;5013073;28;20084;-90
2023/02/19 02:02:53;;;;;;;31.05;14.43;;;9.50;99.90;;;;;;4993885;28;20037;-90
2023/02/19 02:05:43;;;;;;;39.33;15.25;;;9.50;99.90;;;;;;4975493;28;20046;-90
2023/02/19 02:14:39;;;;;;;29.33;12.63;;;9.40;99.90;;;;;;5058812;28;20453;-88
2023/02/19 02:17:25;;;;;;;26.08;11.13;;;9.40;99.90;;;;;;5064650;28;20486;-89
2023/02/19 02:20:21;;;;;;;28.75;12.05;;;9.40;99.90;;;;;;5047450;28;20028;-88
2023/02/19 02:23:06;;;;;;;32.78;12.63;;;9.40;99.90;;;;;;5045671;28;20071;-89
2023/02/19 02:25:46;;;;;;;24.10;10.88;;;9.30;99.90;;;;;;5069353;28;20037;-89
2023/02/19 02:28:34;;;;;;;26.23;10.77;;;9.40;99.90;;;;;;5065810;28;20087;-90
2023/02/19 02:31:13;;;;;;;25.40;10.95;;;9.30;99.90;;;;;;5050346;28;20146;-89
2023/02/19 02:33:49;;;;;;;25.63;12.50;;;9.30;99.90;;;;;;5049329;28;20048;-90
2023/02/19 02:36:36;;;;;;;27.23;11.13;;;9.30;99.90;;;;;;5050572;28;20048;-91
2023/02/19 02:39:06;;;;;;;26.42;12.20;;;9.30;99.90;;;;;;5053003;28;20033;-89
2023/02/19 02:41:34;;;;;;;25.38;11.57;;;9.30;99.90;;;;;;5051321;28;20132;-89
2023/02/19 02:44:02;;;;;;;22.35;10.80;;;9.30;99.90;;;;;;5048711;28;20394;-90
2023/02/19 02:46:34;;;;;;;24.05;10.88;;;9.30;99.90;;;;;;5065413;28;20033;-91
2023/02/19 02:49:20;;;;;;;28.17;12.05;;;9.30;99.90;;;;;;5063674;28;20095;-89
2023/02/19 02:51:50;;;;;;;23.75;11.57;;;9.40;99.90;;;;;;5067897;28;20025;-88
2023/02/19 02:57:16;;;;;;;25.08;12.10;;;9.30;99.90;;;;;;5074904;28;20112;-89
2023/02/19 02:59:44;;;;;;;20.42;10.43;;;9.30;99.90;;;;;;5059482;28;20080;-89
2023/02/19 03:02:17;;;;;;;22.73;10.73;;;9.30;99.90;;;;;;5049159;28;20049;-88
2023/02/19 03:07:44;;;;;;;24.38;12.85;;;9.30;99.90;;;;;;5064012;28;20384;-88
2023/02/19 03:10:16;;;;;;;30.15;12.85;;;9.30;99.90;;;;;;5061565;28;20497;-90
2023/02/19 03:21:10;;;;;;;28.90;10.98;;;9.30;99.90;;;;;;5046640;28;20363;-90
2023/02/19 03:26:22;;;;;;;24.83;10.55;;;9.30;99.90;;;;;;5042377;28;20048;-88
2023/02/19 03:31:39;;;;;;;23.00;9.90;;;9.30;99.90;;;;;;5044402;28;20032;-90
2023/02/19 03:34:11;;;;;;;16.33;9.00;;;9.30;99.90;;;;;;5043012;28;20513;-90
2023/02/19 03:36:44;;;;;;;23.25;10.25;;;9.30;99.90;;;;;;5044514;28;20030;-88
2023/02/19 03:39:14;;;;;;;16.90;8.45;;;9.30;99.90;;;;;;5040981;28;20037;-87
2023/02/19 03:41:47;;;;;;;18.77;9.00;;;9.30;99.90;;;;;;5046143;28;20025;-89
2023/02/19 03:44:23;;;;;;;17.70;8.75;;;9.30;99.90;;;;;;5046713;28;20033;-88
2023/02/19 03:46:55;;;;;;;20.60;9.38;;;9.40;99.90;;;;;;5046373;28;20040;-90
2023/02/19 03:49:31;;;;;;;16.27;8.38;;;9.30;99.90;;;;;;5045097;28;20075;-88
2023/02/19 03:52:13;;;;;;;15.07;8.35;;;9.30;99.90;;;;;;5044816;28;20123;-86
2023/02/19 03:54:49;;;;;;;18.95;8.77;;;9.40;99.90;;;;;;5043475;28;20040;-88
2023/02/19 03:57:27;;;;;;;23.27;9.07;;;9.30;99.90;;;;;;5045476;28;20071;-89
2023/02/19 04:00:02;;;;;;;16.85;9.50;;;9.30;99.90;;;;;;5043707;28;20029;-89
2023/02/19 04:02:45;;;;;;;19.27;8.85;;;9.40;99.90;;;;;;5046278;28;20043;-89
2023/02/19 04:05:16;;;;;;;14.82;7.78;;;9.40;99.90;;;;;;5043961;28;20045;-88
2023/02/19 04:07:46;;;;;;;11.95;7.53;;;9.30;99.90;;;;;;5039927;28;20034;-89
2023/02/19 04:10:14;;;;;;;13.75;7.68;;;9.40;99.90;;;;;;5041936;28;20502;-89
2023/02/19 04:12:47;;;;;;;15.02;7.40;;;9.40;99.90;;;;;;5048117;28;20045;-88
2023/02/19 04:15:19;;;;;;;17.42;8.63;;;9.30;99.90;;;;;;5058189;28;20096;-88
2023/02/19 04:17:55;;;;;;;15.05;8.25;;;9.40;99.90;;;;;;5049744;28;20471;-88
2023/02/19 04:20:25;;;;;;;15.32;8.05;;;9.30;99.90;;;;;;5046316;28;20566;-89
2023/02/19 04:22:51;;;;;;;17.02;8.60;;;9.40;99.90;;;;;;5046534;28;20028;-88
2023/02/19 04:25:17;;;;;;;15.13;8.02;;;9.40;99.90;;;;;;5047022;28;20116;-89
2023/02/19 04:27:44;;;;;;;11.57;7.10;;;9.30;99.90;;;;;;5043155;28;20124;-89
2023/02/19 04:30:12;;;;;;;15.75;7.82;;;9.30;99.90;;;;;;5042831;28;20030;-90
2023/02/19 04:32:37;;;;;;;12.82;7.25;;;9.30;99.90;;;;;;5047417;28;20067;-90
2023/02/19 04:35:03;;;;;;;12.73;7.38;;;9.30;99.90;;;;;;5043284;28;20107;-88
2023/02/19 04:37:29;;;;;;;13.00;7.13;;;9.30;99.90;;;;;;5046979;28;20086;-89
2023/02/19 04:39:55;;;;;;;16.48;8.10;;;9.30;99.90;;;;;;5044825;28;20403;-88
2023/02/19 04:42:20;;;;;;;16.45;6.97;;;9.30;99.90;;;;;;5050316;28;20029;-88
2023/02/19 04:44:46;;;;;;;10.52;6.60;;;9.30;99.90;;;;;;5045296;28;20040;-88
2023/02/19 04:47:11;;;;;;;15.98;7.53;;;9.30;99.90;;;;;;5044500;28;20029;-88
2023/02/19 04:49:37;;;;;;;14.85;6.78;;;9.30;99.90;;;;;;5044835;28;20035;-90
2023/02/19 04:52:03;;;;;;;13.95;7.68;;;9.30;99.90;;;;;;5044563;28;20032;-90
2023/02/19 04:54:28;;;;;;;16.90;7.90;;;9.30;99.90;;;;;;5045953;28;20048;-90
2023/02/19 04:56:54;;;;;;;12.13;6.95;;;9.30;99.90;;;;;;5048209;28;20047;-88
2023/02/19 04:59:20;;;;;;;13.73;7.30;;;9.30;99.90;;;;;;5046395;28;20459;-90
2023/02/19 05:01:45;;;;;;;17.98;8.35;;;9.30;99.90;;;;;;5047521;28;20048;-89
2023/02/19 05:04:11;;;;;;;13.50;7.72;;;9.30;99.90;;;;;;5043971;28;20049;-88
2023/02/19 05:06:36;;;;;;;12.38;7.80;;;9.30;99.90;;;;;;5044960;28;20438;-88
2023/02/19 05:09:02;;;;;;;16.63;8.48;;;9.30;99.90;;;;;;5042559;28;20029;-87
2023/02/19 05:11:28;;;;;;;17.75;9.75;;;9.30;99.90;;;;;;5045512;28;20045;-88
2023/02/19 05:13:55;;;;;;;17.65;9.25;;;9.30;99.90;;;;;;5046908;28;20502;-89
2023/02/19 05:16:20;;;;;;;12.50;7.10;;;9.30;99.90;;;;;;5045331;28;20036;-88
2023/02/19 05:18:46;;;;;;;17.73;8.75;;;9.30;99.90;;;;;;5047706;28;20036;-89
2023/02/19 05:21:13;;;;;;;16.38;8.32;;;9.20;99.90;;;;;;5040399;28;20025;-90
2023/02/19 05:23:38;;;;;;;19.17;8.05;;;9.20;99.90;;;;;;5045799;28;20029;-88
2023/02/19 05:26:11;;;;;;;16.45;8.25;;;9.30;99.90;;;;;;5045534;28;20041;-89
2023/02/19 05:28:37;;;;;;;15.38;8.68;;;9.30;99.90;;;;;;5044470;28;20025;-91
2023/02/19 05:31:05;;;;;;;17.35;9.35;;;9.30;99.90;;;;;;5046963;28;20132;-90
2023/02/19 05:33:32;;;;;;;14.77;8.43;;;9.20;99.90;;;;;;5046060;28;20057;-90
2023/02/19 05:35:57;;;;;;;13.38;7.60;;;9.30;99.90;;;;;;5061003;28;20107;-89
2023/02/19 05:38:23;;;;;;;25.50;9.15;;;9.20;99.90;;;;;;5045368;28;20479;-89
2023/02/19 05:40:50;;;;;;;16.50;8.48;;;9.20;99.90;;;;;;5043926;28;20036;-89
2023/02/19 05:43:16;;;;;;;15.68;7.80;;;9.20;99.90;;;;;;5042541;28;20088;-90
2023/02/19 05:45:42;;;;;;;16.15;8.13;;;9.20;99.90;;;;;;5045905;28;20044;-90
2023/02/19 05:48:12;;;;;;;13.30;7.85;;;9.30;99.90;;;;;;5049492;28;20017;-90
2023/02/19 05:50:38;;;;;;;15.35;7.93;;;9.30;99.90;;;;;;5046884;28;20392;-90
2023/02/19 05:53:04;;;;;;;17.05;8.75;;;9.30;99.90;;;;;;5046341;28;20083;-89
2023/02/19 05:55:34;;;;;;;14.65;7.07;;;9.30;99.90;;;;;;5047662;28;20475;-88
2023/02/19 05:58:00;;;;;;;14.13;7.38;;;9.30;99.90;;;;;;5044106;28;20570;-88
2023/02/19 06:00:26;;;;;;;12.85;6.93;;;9.30;99.90;;;;;;5050796;28;20049;-90
2023/02/19 06:02:53;;;;;;;17.20;7.88;;;9.30;99.90;;;;;;5046472;28;20041;-89
2023/02/19 06:05:19;;;;;;;18.80;8.07;;;9.30;99.90;;;;;;5048307;28;20025;-89
2023/02/19 06:07:45;;;;;;;14.90;8.40;;;9.30;99.90;;;;;;5043179;28;20087;-86
2023/02/19 06:10:11;;;;;;;15.07;8.13;;;9.30;99.90;;;;;;5044619;28;20406;-87
2023/02/19 06:12:37;;;;;;;17.50;8.65;;;9.30;99.90;;;;;;5049078;28;20048;-89
2023/02/19 06:15:04;;;;;;;14.20;7.80;;;9.20;99.90;;;;;;5046837;28;20044;-89
2023/02/19 06:17:31;;;;;;;16.27;8.40;;;9.20;99.90;;;;;;5046004;28;20472;-90
2023/02/19 06:19:57;;;;;;;14.88;7.85;;;9.20;99.90;;;;;;5044882;28;20037;-90
2023/02/19 06:22:22;;;;;;;18.15;7.95;;;9.20;99.90;;;;;;5048206;28;20074;-90
2023/02/19 06:24:48;;;;;;;18.00;8.43;;;9.30;99.90;;;;;;5050456;28;20055;-88
2023/02/19 06:27:15;;;;;;;13.38;8.35;;;9.20;99.90;;;;;;5042405;28;20048;-88
2023/02/19 06:29:43;;;;;;;15.90;8.25;;;9.20;99.90;;;;;;5046429;28;20453;-90
2023/02/19 06:32:08;;;;;;;20.48;9.13;;;9.20;99.90;;;;;;5042831;28;20033;-90
2023/02/19 06:34:34;;;;;;;17.02;8.82;;;9.10;99.90;;;;;;5049763;28;20132;-90
2023/02/19 06:37:00;;;;;;;11.95;7.47;;;9.20;99.90;;;;;;5047832;28;20021;-90
2023/02/19 06:39:29;;;;;;;13.75;7.53;;;9.10;99.90;;;;;;5048165;28;20099;-87
2023/02/19 06:41:56;;;;;;;15.05;7.35;;;9.20;99.90;;;;;;5044254;28;20120;-89
2023/02/19 06:44:24;;;;;;;16.30;7.63;;;9.10;99.90;;;;;;5048084;28;20047;-87
2023/02/19 06:46:53;;;;;;;14.77;6.22;;;9.20;99.90;;;;;;5047507;28;20037;-89
2023/02/19 06:49:21;;;;;;;11.18;6.43;;;9.10;99.90;;;;;;5048129;28;20036;-90
2023/02/19 06:51:47;;;;;;;12.98;6.68;;;9.20;99.90;;;;;;5061068;28;20421;-88
2023/02/19 06:54:12;;;;;;;16.45;7.28;;;9.10;99.90;;;;;;5061161;28;20505;-88
2023/02/19 06:56:39;;;;;;;14.40;6.22;;;9.20;99.90;;;;;;5049809;28;20036;-89
2023/02/19 06:59:11;;;;;;;12.75;6.45;;;9.20;99.90;;;;;;5052921;28;20115;-88
2023/02/19 07:01:40;;;;;;;13.23;6.55;;;9.20;99.90;;;;;;5060964;28;20025;-89
2023/02/19 07:04:06;;;;;;;16.25;7.45;;;9.20;99.90;;;;;;5051697;28;20025;-88
2023/02/19 07:06:33;;;;;;;16.23;7.05;;;9.20;99.90;;;;;;5068986;28;20041;-86
2023/02/19 07:08:59;;;;;;;14.52;6.93;;;9.20;99.90;;;;;;5054957;28;20033;-88
2023/02/19 07:11:25;;;;;;;13.63;6.60;;;9.20;99.90;;;;;;5055336;28;20101;-89
2023/02/19 07:13:59;;;;;;;12.70;6.50;;;9.20;99.90;;;;;;5058918;28;20072;-88
2023/02/19 07:16:29;;;;;;;15.25;7.35;;;9.20;99.90;;;;;;5042754;28;20112;-91
2023/02/19 07:18:59;;;;;;;10.95;6.00;;;9.20;99.90;;;;;;5048088;28;20036;-90
2023/02/19 07:21:26;;;;;;;12.45;6.53;;;9.10;99.90;;;;;;5044318;28;20495;-90
2023/02/19 07:23:51;;;;;;;10.75;6.20;;;9.20;99.90;;;;;;5049387;28;20033;-89
2023/02/19 07:26:18;;;;;;;13.45;6.70;;;9.10;99.90;;;;;;5045734;28;20026;-88
2023/02/19 07:28:48;;;;;;;11.80;6.65;;;9.20;99.90;;;;;;5046750;28;20123;-91
2023/02/19 07:31:18;;;;;;;10.80;6.07;;;9.10;99.90;;;;;;5044576;28;20375;-90
2023/02/19 07:33:47;;;;;;;12.25;6.68;;;9.10;99.90;;;;;;5047211;28;20453;-89
2023/02/19 07:36:16;;;;;;;12.10;6.93;;;9.10;99.90;;;;;;5048019;28;20040;-91
2023/02/19 07:38:42;;;;;;;12.40;6.70;;;9.10;99.90;;;;;;5045557;28;20112;-90
2023/02/19 07:41:08;;;;;;;14.40;7.38;;;9.10;99.90;;;;;;5047110;28;20095;-90
2023/02/19 07:43:36;;;;;;;10.88;6.45;;;9.10;99.90;;;;;;5053044;28;20479;-91
2023/02/19 07:46:12;;;;;;;12.52;6.22;;;9.20;99.90;;;;;;5048489;28;20048;-90
2023/02/19 07:48:39;;;;;;;13.18;6.75;;;9.10;99.90;;;;;;5043884;28;20025;-88
2023/02/19 07:51:12;;;;;;;12.95;6.50;;;9.20;99.90;;;;;;5050324;28;20040;-90
2023/02/19 07:53:38;;;;;;;13.95;7.05;;;9.20;99.90;;;;;;5042613;28;20042;-91
2023/02/19 07:56:06;;;;;;;12.55;7.45;;;9.10;99.90;;;;;;5045534;28;20102;-89
2023/02/19 07:58:35;;;;;;;12.52;8.00;;;9.20;99.90;;;;;;5043851;28;20081;-90
2023/02/19 08:01:09;;;;;;;12.25;7.78;;;9.20;99.90;;;;;;5041878;28;20115;-89
2023/02/19 08:03:36;;;;;;;12.13;7.93;;;9.20;99.90;;;;;;5041189;28;20086;-87
2023/02/19 08:06:02;;;;;;;11.85;7.60;;;9.20;99.90;;;;;;5040051;28;20048;-90
2023/02/19 08:08:27;;;;;;;16.60;8.27;;;9.20;99.90;;;;;;5044516;28;20391;-85
2023/02/19 08:13:47;;;;;;;14.93;8.15;;;9.20;99.90;;;;;;5055928;28;20101;-91
2023/02/19 08:16:16;;;;;;;13.52;7.38;;;9.30;99.90;;;;;;5049399;28;20035;-88
2023/02/19 08:18:42;;;;;;;11.85;7.10;;;9.30;99.90;;;;;;5048638;28;20032;-90
2023/02/19 08:21:08;;;;;;;17.27;7.70;;;9.40;99.90;;;;;;5042927;28;20055;-88
2023/02/19 08:23:34;;;;;;;13.48;8.13;;;9.40;99.90;;;;;;5044976;28;20036;-88
2023/02/19 08:26:04;;;;;;;15.00;7.32;;;9.40;99.90;;;;;;5048138;28;20037;-88
2023/02/19 08:28:30;;;;;;;15.63;7.60;;;9.40;99.90;;;;;;5047936;28;20025;-89
2023/02/19 08:31:14;;;;;;;14.82;7.30;;;9.40;99.90;;;;;;5049602;28;20029;-90
2023/02/19 08:33:40;;;;;;;13.63;7.80;;;9.40;99.90;;;;;;5049192;28;20052;-89
2023/02/19 08:36:07;;;;;;;17.23;8.00;;;9.40;99.90;;;;;;5048568;28;20386;-88
2023/02/19 08:38:35;;;;;;;16.92;9.02;;;9.40;99.90;;;;;;5045929;28;20036;-88
2023/02/19 08:41:09;;;;;;;14.65;7.68;;;9.40;99.90;;;;;;5049810;28;20044;-90
2023/02/19 08:43:37;;;;;;;15.25;7.65;;;9.40;99.90;;;;;;5048238;28;20127;-88
2023/02/19 08:46:05;;;;;;;15.65;7.07;;;9.40;99.90;;;;;;5045924;28;20123;-87
2023/02/19 08:48:30;;;;;;;11.23;6.68;;;9.40;99.90;;;;;;5048347;28;20090;-87
2023/02/19 08:51:04;;;;;;;13.18;7.22;;;9.40;99.90;;;;;;5042161;28;20040;-85
2023/02/19 08:53:33;;;;;;;11.85;6.18;;;9.40;99.90;;;;;;5038739;28;20580;-85
2023/02/19 08:56:04;;;;;;;11.95;6.95;;;9.40;99.90;;;;;;5053716;28;20048;-86
2023/02/19 08:58:31;;;;;;;13.93;7.13;;;9.50;99.90;;;;;;5037344;28;20043;-87
2023/02/19 09:00:57;;;;;;;13.88;6.57;;;9.50;99.90;;;;;;5041897;28;20040;-86
2023/02/19 09:03:22;;;;;;;15.85;7.57;;;9.60;99.90;;;;;;5060253;28;20115;-85
2023/02/19 09:05:48;;;;;;;11.75;7.47;;;9.60;99.90;;;;;;5043549;28;20075;-84
2023/02/19 09:08:14;;;;;;;13.45;7.68;;;9.60;99.90;;;;;;5056224;28;20299;-84
2023/02/19 09:10:40;;;;;;;16.15;7.63;;;9.60;99.90;;;;;;5044185;28;20367;-90
2023/02/19 09:13:06;;;;;;;12.88;7.85;;;9.60;99.90;;;;;;5043879;28;20090;-86
2023/02/19 09:15:34;;;;;;;16.80;8.70;;;9.70;99.90;;;;;;5041470;28;20044;-88
2023/02/19 09:17:59;;;;;;;17.10;9.20;;;9.70;99.90;;;;;;5038693;28;20040;-87
2023/02/19 09:20:25;;;;;;;17.42;8.90;;;9.70;99.90;;;;;;5035313;28;20343;-87
2023/02/19 09:22:57;;;;;;;14.43;8.40;;;9.60;99.90;;;;;;5031965;28;20625;-85
2023/02/19 09:25:22;;;;;;;14.55;9.35;;;9.60;99.90;;;;;;5035127;28;20041;-86
2023/02/19 09:27:48;;;;;;;20.63;9.15;;;9.60;99.90;;;;;;5038472;28;20498;-86
2023/02/19 09:30:14;;;;;;;17.20;9.45;;;9.50;99.90;;;;;;5045581;28;20037;-88
2023/02/19 09:32:39;;;;;;;16.33;9.45;;;9.60;99.90;;;;;;5045567;28;20052;-90
2023/02/19 09:35:05;;;;;;;19.13;9.82;;;9.70;99.90;;;;;;5044107;28;20423;-86
2023/02/19 09:37:31;;;;;;;14.15;8.50;;;9.70;99.90;;;;;;5042440;28;20033;-87
2023/02/19 09:39:56;;;;;;;17.48;9.15;;;9.80;99.90;;;;;;5041594;28;20048;-87
2023/02/19 09:42:32;;;;;;;13.52;8.88;;;9.80;99.90;;;;;;5039569;28;20029;-87
2023/02/19 09:45:00;;;;;;;14.95;8.68;;;9.90;99.90;;;;;;5039931;28;20115;-87
2023/02/19 09:47:28;;;;;;;13.48;8.95;;;9.90;99.90;;;;;;5039629;28;20040;-86
2023/02/19 09:49:59;;;;;;;15.02;8.70;;;9.90;99.90;;;;;;5039136;28;20052;-85
2023/02/19 09:52:40;;;;;;;14.73;8.60;;;10.00;99.90;;;;;;5039675;28;20027;-87
2023/02/19 09:55:14;;;;;;;16.73;9.43;;;10.10;99.90;;;;;;5035042;28;20059;-87
2023/02/19 09:57:40;;;;;;;;;;;10.10;99.90;;;;;;5039954;28;20033;-88
2023/02/19 10:00:12;;;;;;;16.13;10.68;;;10.10;99.90;;;;;;5041720;28;19952;-89
2023/02/19 10:02:38;;;;;;;16.42;10.88;;;10.20;99.90;;;;;;5040678;28;20061;-85
2023/02/19 10:05:15;;;;;;;16.77;10.45;;;10.30;99.90;;;;;;5038307;28;20065;-88
2023/02/19 10:07:49;;;;;;;14.93;10.95;;;10.40;99.90;;;;;;5037900;28;20033;-87
2023/02/19 10:10:15;;;;;;;18.60;11.05;;;10.50;99.90;;;;;;5038576;28;20045;-88
2023/02/19 10:12:46;;;;;;;18.30;12.00;;;10.50;99.90;;;;;;5046816;28;20055;-88
2023/02/19 10:15:30;;;;;;;17.73;11.18;;;10.50;99.90;;;;;;5046512;28;20074;-90
2023/02/19 10:17:56;;;;;;;16.88;11.25;;;10.40;99.90;;;;;;5044313;28;20038;-84
2023/02/19 10:20:25;;;;;;;16.88;9.98;;;10.30;99.90;;;;;;5042754;28;20032;-85
2023/02/19 10:23:02;;;;;;;13.77;10.05;;;10.20;99.90;;;;;;5040071;28;20128;-86
2023/02/19 10:25:29;;;;;;;15.05;9.40;;;10.10;99.90;;;;;;5046255;28;20040;-87
2023/02/19 10:27:58;;;;;;;15.00;8.40;;;10.00;99.90;;;;;;5060511;28;20048;-89
2023/02/19 10:30:45;;;;;;;15.77;7.90;;;10.00;99.90;;;;;;5043399;28;20036;-88
2023/02/19 10:33:15;;;;;;;9.88;5.47;;;9.90;99.90;;;;;;5046694;28;20033;-86
2023/02/19 10:36:05;;;;;;;10.60;5.40;;;9.80;99.90;;;;;;5048134;28;20048;-88
2023/02/19 10:38:54;;;;;;;;;;;;;;;;;;;;;
2023/02/19 10:41:25;;;;;;;11.95;5.38;;;9.60;99.90;;;;;;5060838;28;20035;-89
2023/02/19 10:44:02;;;;;;;8.30;4.63;;;9.60;99.90;;;;;;5046774;28;20029;-86
2023/02/19 10:46:34;;;;;;;7.55;4.65;;;9.50;99.90;;;;;;5042617;28;20494;-88
2023/02/19 10:49:38;;;;;;;8.77;4.60;;;9.60;99.90;;;;;;5059624;28;20037;-90
2023/02/19 10:52:30;;;;;;;10.23;4.60;;;9.70;99.90;;;;;;5004335;28;20059;-90
2023/02/19 10:55:13;;;;;;;9.13;5.07;;;9.80;99.90;;;;;;5064522;28;20084;-86
2023/02/19 10:57:51;;;;;;;9.52;4.43;;;9.80;99.90;;;;;;5051815;28;20031;-94
2023/02/19 11:01:05;;;;;;;7.70;4.43;;;10.00;99.90;;;;;;5050638;28;20134;-90
2023/02/19 11:03:32;;;;;;;12.90;4.68;;;10.20;99.90;;;;;;5063504;28;20032;-92
2023/02/19 11:06:07;;;;;;;9.38;3.90;;;10.40;99.90;;;;;;5045697;28;20033;-86
2023/02/19 11:08:57;;;;;;;6.95;3.90;;;10.40;99.90;;;;;;5039608;28;20043;-85
2023/02/19 11:11:30;;;;;;;7.63;4.43;;;10.30;99.90;;;;;;5040998;28;20127;-84
2023/02/19 11:14:05;;;;;;;10.55;3.80;;;10.20;99.90;;;;;;5058595;28;20045;-86
2023/02/19 11:16:46;;;;;;;7.40;3.78;;;10.20;99.90;;;;;;5042678;28;20479;-87
2023/02/19 11:19:32;;;;;;;6.90;3.33;;;10.30;99.90;;;;;;5060737;28;20036;-87
2023/02/19 11:21:59;;;;;;;6.72;3.22;;;10.40;99.90;;;;;;5057459;28;20064;-88
2023/02/19 11:24:32;;;;;;;5.40;2.80;;;10.30;99.90;;;;;;5065738;28;20032;-87
2023/02/19 11:27:00;;;;;;;7.97;2.78;;;10.40;99.90;;;;;;5048198;28;20021;-87
2023/02/19 11:29:33;;;;;;;5.00;2.65;;;10.50;99.90;;;;;;5050283;28;20033;-86
2023/02/19 11:32:17;;;;;;;4.97;2.33;;;10.50;99.90;;;;;;5045205;28;20053;-88
2023/02/19 11:34:46;;;;;;;6.57;2.92;;;10.60;99.90;;;;;;5062691;28;20153;-85
2023/02/19 11:37:19;;;;;;;5.15;2.80;;;10.60;99.90;;;;;;5044217;28;20043;-87
2023/02/19 11:39:51;;;;;;;3.92;2.03;;;10.70;99.90;;;;;;5040837;28;20123;-87
2023/02/19 11:42:37;;;;;;;6.53;2.30;;;10.60;99.90;;;;;;5044647;28;20113;-88
2023/02/19 11:45:19;;;;;;;6.25;2.17;;;10.50;99.90;;;;;;5050060;28;20068;-88
2023/02/19 11:48:00;;;;;;;4.80;2.30;;;10.40;99.90;;;;;;5045794;28;20029;-90
2023/02/19 11:50:56;;;;;;;4.45;2.20;;;10.30;99.90;;;;;;5062012;28;20037;-90
2023/02/19 11:53:31;;;;;;;4.53;2.33;;;10.20;99.90;;;;;;5046412;28;20067;-90
2023/02/19 11:56:26;;;;;;;4.40;1.90;;;10.10;99.90;;;;;;5042260;28;20044;-88
2023/02/19 11:59:14;;;;;;;3.60;1.85;;;10.10;99.90;;;;;;5043069;28;20051;-89
2023/02/19 12:02:14;;;;;;;3.92;1.77;;;10.00;99.90;;;;;;5044986;28;20106;-87
2023/02/19 12:05:32;;;;;;;3.58;1.65;;;9.90;99.90;;;;;;5044134;28;20071;-87
2023/02/19 12:08:35;;;;;;;2.92;1.98;;;10.00;99.90;;;;;;5005459;28;20048;-89
2023/02/19 12:11:14;;;;;;;4.63;1.80;;;9.90;99.90;;;;;;5046297;28;20044;-88
2023/02/19 12:14:19;;;;;;;3.22;1.75;;;9.80;99.90;;;;;;5042983;28;20044;-87
2023/02/19 12:17:04;;;;;;;4.15;1.65;;;9.80;99.90;;;;;;5056954;28;20103;-85
2023/02/19 12:19:58;;;;;;;3.35;1.73;;;9.70;99.90;;;;;;5040745;28;20081;-88
2023/02/19 12:22:45;;;;;;;3.35;1.83;;;9.70;99.90;;;;;;5010041;28;20071;-89
2023/02/19 12:25:35;;;;;;;3.83;1.70;;;9.60;99.90;;;;;;5048322;28;20037;-88
2023/02/19 12:28:43;;;;;;;4.15;2.33;;;9.60;99.90;;;;;;5059163;28;20028;-88
2023/02/19 12:31:47;;;;;;;3.85;1.70;;;9.50;99.90;;;;;;5049408;28;20477;-90
2023/02/19 12:34:31;;;;;;;;;;;;;;;;;;;;;
2023/02/19 12:37:05;;;;;;;3.90;2.28;;;9.50;99.90;;;;;;5065852;28;20322;-91
2023/02/19 12:39:58;;;;;;;4.82;2.33;;;9.50;99.90;;;;;;5065537;28;20032;-89
2023/02/19 12:43:02;;;;;;;4.45;2.88;;;9.60;99.90;;;;;;5047877;28;20039;-91
2023/02/19 12:45:51;;;;;;;;;;;9.60;99.90;;;;;;5033415;28;20439;-90
2023/02/19 12:48:52;;;;;;;3.42;2.15;;;9.60;99.90;;;;;;5085642;22;19935;-89
2023/02/19 12:51:32;;;;;;;4.07;2.42;;;9.70;99.90;;;;;;4961132;28;20442;-92
2023/02/19 12:54:38;;;;;;;4.38;2.05;;;9.80;99.90;;;;;;5003319;28;20715;-88
2023/02/19 12:57:14;;;;;;;4.05;2.55;;;9.80;99.90;;;;;;4975270;28;20038;-90
2023/02/19 13:00:30;;;;;;;3.55;2.25;;;9.80;99.90;;;;;;5002474;28;20046;-87
2023/02/19 13:03:27;;;;;;;4.10;2.58;;;9.80;99.90;;;;;;4991022;28;20098;-87
2023/02/19 13:06:05;;;;;;;5.03;2.88;;;9.70;99.90;;;;;;4989195;28;20038;-88
2023/02/19 13:08:42;;;;;;;4.50;2.72;;;9.70;99.90;;;;;;5007522;28;20050;-87
2023/02/19 13:11:23;;;;;;;5.75;2.88;;;9.60;99.90;;;;;;4992352;28;20797;-88
2023/02/19 13:14:24;;;;;;;5.70;3.03;;;9.60;99.90;;;;;;4974108;28;20030;-82
2023/02/19 13:16:56;;;;;;;5.45;3.65;;;9.60;99.90;;;;;;4980950;28;20042;-84
2023/02/19 13:19:22;;;;;;;4.15;2.63;;;9.60;99.90;;;;;;4980783;28;20078;-86
2023/02/19 13:24:51;;;;;;;6.70;3.05;;;9.60;99.90;;;;;;4999091;28;20407;-86
2023/02/19 13:27:28;;;;;;;6.03;3.30;;;9.60;99.90;;;;;;4986535;28;20488;-84
2023/02/19 13:29:57;;;;;;;5.40;3.22;;;9.70;99.90;;;;;;4987231;28;21068;-84
2023/02/19 13:32:28;;;;;;;5.45;3.35;;;9.70;99.90;;;;;;5002727;28;20030;-84
2023/02/19 13:35:25;;;;;;;5.40;3.38;;;9.70;99.90;;;;;;4986879;28;20563;-83
2023/02/19 13:37:52;;;;;;;4.32;2.50;;;9.70;99.90;;;;;;4995656;28;20046;-83
2023/02/19 13:40:32;;;;;;;5.32;3.20;;;9.80;99.90;;;;;;4984673;28;20034;-84
2023/02/19 13:43:01;;;;;;;4.97;3.03;;;9.80;99.90;;;;;;4987271;28;20749;-84
2023/02/19 13:45:42;;;;;;;4.20;2.88;;;9.80;99.90;;;;;;4985707;28;21022;-84
2023/02/19 13:48:28;;;;;;;4.85;3.03;;;9.80;99.90;;;;;;4986179;28;20072;-80
2023/02/19 13:51:32;;;;;;;4.78;2.95;;;9.80;99.90;;;;;;4984484;28;20042;-83